createdAt,value
2017-10-22T00:02:17.016Z,42.57
2017-10-22T00:04:45.660Z,33.13
2017-10-22T00:07:13.710Z,40.10
2017-10-22T00:09:42.453Z,34.03
2017-10-22T00:12:10.530Z,41.60
2017-10-22T00:14:39.219Z,41.23
2017-10-22T00:17:07.686Z,35.30
2017-10-22T00:19:36.338Z,47.07
2017-10-22T00:22:05.678Z,41.17
2017-10-22T00:24:33.675Z,36.43
2017-10-22T00:27:01.723Z,33.60
2017-10-22T00:29:30.442Z,34.03
2017-10-22T00:31:58.495Z,40.50
2017-10-22T00:34:26.926Z,40.77
2017-10-22T00:36:54.932Z,36.13
2017-10-22T00:39:22.944Z,42.80
2017-10-22T00:41:50.980Z,35.90
2017-10-22T00:44:19.094Z,39.30
2017-10-22T00:46:47.902Z,39.73
2017-10-22T00:49:16.842Z,38.60
2017-10-22T00:51:45.454Z,38.20
2017-10-22T00:54:13.527Z,39.20
2017-10-22T00:56:41.564Z,39.33
2017-10-22T00:59:10.108Z,46.27
2017-10-22T01:01:39.554Z,39.77
2017-10-22T01:04:08.991Z,46.97
2017-10-22T01:06:37.741Z,43.40
2017-10-22T01:09:05.787Z,36.83
2017-10-22T01:11:33.963Z,37.70
2017-10-22T01:14:02.682Z,37.07
2017-10-22T01:16:30.771Z,43.50
2017-10-22T01:18:59.308Z,40.70
2017-10-22T01:21:27.786Z,46.97
2017-10-22T01:23:55.890Z,38.77
2017-10-22T01:26:24.112Z,34.83
2017-10-22T01:28:52.359Z,37.20
2017-10-22T01:31:20.854Z,41.07
2017-10-22T01:33:49.045Z,39.63
2017-10-22T01:36:17.650Z,34.87
2017-10-22T01:38:46.689Z,42.30
2017-10-22T01:41:14.783Z,42.10
2017-10-22T01:43:42.967Z,46.67
2017-10-22T01:46:11.662Z,39.10
2017-10-22T01:48:40.124Z,40.33
2017-10-22T01:51:08.400Z,44.30
2017-10-22T01:53:37.064Z,46.97
2017-10-22T01:56:05.228Z,43.13
2017-10-22T01:58:33.347Z,45.87
2017-10-22T02:01:02.229Z,40.77
2017-10-22T02:03:30.278Z,44.73
2017-10-22T02:05:58.832Z,52.07
2017-10-22T02:08:27.380Z,48.53
2017-10-22T02:10:56.073Z,51.87
2017-10-22T02:13:24.199Z,46.53
2017-10-22T02:15:52.935Z,54.37
2017-10-22T02:18:22.207Z,48.30
2017-10-22T02:20:51.050Z,49.77
2017-10-22T02:23:20.398Z,50.33
2017-10-22T02:25:48.469Z,42.83
2017-10-22T02:28:16.455Z,53.43
2017-10-22T02:30:45.111Z,53.33
2017-10-22T02:33:13.732Z,54.23
2017-10-22T02:35:43.098Z,64.93
2017-10-22T02:38:11.554Z,61.80
2017-10-22T02:40:40.284Z,44.13
2017-10-22T02:43:08.263Z,42.53
2017-10-22T02:45:36.902Z,48.70
2017-10-22T02:48:06.247Z,40.00
2017-10-22T02:50:34.855Z,41.63
2017-10-22T02:53:03.000Z,38.83
2017-10-22T02:55:31.489Z,50.40
2017-10-22T02:58:00.088Z,51.67
2017-10-22T03:00:28.758Z,44.47
2017-10-22T03:02:57.202Z,38.87
2017-10-22T03:05:26.742Z,48.73
2017-10-22T03:07:54.771Z,45.77
2017-10-22T03:10:24.092Z,53.33
2017-10-22T03:12:53.430Z,59.57
2017-10-22T03:15:22.823Z,53.33
2017-10-22T03:17:50.914Z,48.10
2017-10-22T03:20:19.015Z,42.80
2017-10-22T03:22:47.534Z,50.87
2017-10-22T03:25:16.231Z,50.77
2017-10-22T03:27:44.250Z,43.93
2017-10-22T03:30:12.260Z,42.97
2017-10-22T03:32:40.834Z,40.73
2017-10-22T03:35:10.178Z,41.60
2017-10-22T03:37:38.808Z,45.80
2017-10-22T03:40:08.230Z,46.93
2017-10-22T03:42:37.011Z,40.10
2017-10-22T03:45:05.777Z,40.43
2017-10-22T03:47:34.503Z,46.37
2017-10-22T03:50:03.080Z,38.13
2017-10-22T03:52:32.595Z,42.67
2017-10-22T03:55:01.067Z,44.13
2017-10-22T03:57:29.832Z,42.93
2017-10-22T03:59:57.910Z,43.10
2017-10-22T04:02:26.350Z,46.47
2017-10-22T04:04:54.430Z,45.50
2017-10-22T04:07:22.435Z,48.47
2017-10-22T04:09:51.166Z,38.77
2017-10-22T04:12:19.208Z,49.57
2017-10-22T04:14:47.954Z,34.97
2017-10-22T04:17:16.020Z,43.90
2017-10-22T04:19:44.094Z,39.63
2017-10-22T04:22:12.671Z,35.40
2017-10-22T04:24:41.970Z,46.00
2017-10-22T04:27:10.768Z,48.03
2017-10-22T04:29:38.818Z,38.63
2017-10-22T04:32:06.815Z,48.33
2017-10-22T04:34:35.474Z,42.03
2017-10-22T04:37:04.170Z,51.60
2017-10-22T04:39:32.290Z,43.77
2017-10-22T04:42:00.268Z,38.70
2017-10-22T04:44:28.976Z,41.33
2017-10-22T04:46:57.794Z,43.50
2017-10-22T04:49:25.832Z,44.67
2017-10-22T04:51:55.271Z,39.03
2017-10-22T04:54:23.792Z,39.57
2017-10-22T04:56:51.998Z,38.23
2017-10-22T04:59:20.780Z,33.10
2017-10-22T05:01:49.536Z,43.30
2017-10-22T05:04:18.171Z,42.27
2017-10-22T05:06:47.348Z,46.87
2017-10-22T05:09:15.917Z,37.00
2017-10-22T05:11:44.647Z,35.47
2017-10-22T05:14:12.866Z,40.67
2017-10-22T05:16:40.912Z,46.93
2017-10-22T05:19:09.470Z,40.57
2017-10-22T05:21:38.816Z,42.23
2017-10-22T05:24:07.328Z,36.00
2017-10-22T05:26:36.573Z,37.30
2017-10-22T05:29:04.668Z,47.80
2017-10-22T05:31:32.701Z,37.47
2017-10-22T05:34:01.461Z,36.63
2017-10-22T05:36:29.980Z,37.70
2017-10-22T05:38:58.741Z,45.63
2017-10-22T05:41:27.527Z,39.47
2017-10-22T05:43:55.570Z,45.40
2017-10-22T05:46:23.557Z,45.30
2017-10-22T05:48:51.609Z,32.23
2017-10-22T05:51:20.342Z,37.50
2017-10-22T05:53:49.675Z,42.47
2017-10-22T05:56:17.647Z,37.20
2017-10-22T05:58:45.842Z,38.63
2017-10-22T06:01:13.914Z,48.03
2017-10-22T06:03:41.967Z,30.80
2017-10-22T06:06:10.540Z,42.87
2017-10-22T06:08:39.390Z,38.10
2017-10-22T06:11:08.138Z,31.43
2017-10-22T06:13:36.991Z,40.73
2017-10-22T06:16:05.827Z,33.57
2017-10-22T06:18:33.816Z,36.03
2017-10-22T06:21:01.883Z,37.60
2017-10-22T06:23:30.499Z,35.30
2017-10-22T06:25:58.958Z,25.57
2017-10-22T06:28:27.443Z,33.93
2017-10-22T06:30:56.203Z,34.70
2017-10-22T06:33:24.220Z,25.97
2017-10-22T06:35:52.489Z,30.10
2017-10-22T06:38:21.151Z,39.97
2017-10-22T06:40:49.662Z,60.53
2017-10-22T06:43:17.850Z,38.60
2017-10-22T06:45:46.600Z,36.50
2017-10-22T06:48:14.672Z,46.77
2017-10-22T06:50:42.861Z,42.47
2017-10-22T06:53:20.441Z,36.60
2017-10-22T06:55:49.647Z,47.33
2017-10-22T06:58:17.848Z,49.10
2017-10-22T07:00:46.267Z,44.63
2017-10-22T07:03:15.094Z,40.93
2017-10-22T07:05:43.280Z,54.73
2017-10-22T07:08:11.463Z,48.20
2017-10-22T07:10:39.584Z,44.80
2017-10-22T07:13:07.750Z,36.03
2017-10-22T07:15:36.603Z,35.50
2017-10-22T07:18:04.677Z,37.30
2017-10-22T07:20:32.726Z,48.83
2017-10-22T07:23:00.759Z,36.97
2017-10-22T07:25:29.532Z,46.30
2017-10-22T07:27:57.539Z,39.20
2017-10-22T07:30:25.535Z,47.20
2017-10-22T07:32:53.536Z,36.50
2017-10-22T07:35:21.702Z,39.10
2017-10-22T07:37:50.636Z,35.00
2017-10-22T07:40:19.218Z,34.43
2017-10-22T07:42:48.346Z,32.30
2017-10-22T07:45:17.018Z,34.83
2017-10-22T07:47:45.028Z,33.17
2017-10-22T07:50:13.135Z,34.50
2017-10-22T07:52:41.878Z,44.17
2017-10-22T07:55:10.635Z,29.43
2017-10-22T07:57:39.176Z,32.03
2017-10-22T08:00:07.708Z,35.77
2017-10-22T08:02:35.883Z,29.57
2017-10-22T08:05:03.880Z,28.50
2017-10-22T08:07:31.944Z,35.63
2017-10-22T08:10:00.656Z,27.50
2017-10-22T08:12:29.190Z,29.53
2017-10-22T08:14:57.656Z,33.30
2017-10-22T08:17:26.973Z,33.37
2017-10-22T08:19:55.030Z,35.47
2017-10-22T08:22:23.791Z,25.17
2017-10-22T08:24:52.328Z,31.50
2017-10-22T08:27:21.124Z,27.40
2017-10-22T08:29:49.739Z,26.03
2017-10-22T08:32:18.177Z,32.63
2017-10-22T08:34:46.188Z,33.47
2017-10-22T08:37:14.191Z,27.40
2017-10-22T08:39:42.915Z,30.37
2017-10-22T08:42:11.011Z,28.37
2017-10-22T08:44:39.788Z,35.97
2017-10-22T08:47:08.879Z,28.20
2017-10-22T08:49:37.459Z,38.30
2017-10-22T08:52:05.563Z,30.90
2017-10-22T08:54:34.331Z,29.90
2017-10-22T08:57:02.947Z,30.20
2017-10-22T08:59:31.487Z,25.87
2017-10-22T09:02:00.066Z,26.13
2017-10-22T09:04:28.973Z,35.50
2017-10-22T09:06:57.112Z,28.70
2017-10-22T09:09:26.700Z,30.80
2017-10-22T09:11:55.955Z,26.97
2017-10-22T09:14:24.803Z,29.93
2017-10-22T09:16:53.451Z,31.43
2017-10-22T09:19:21.568Z,40.73
2017-10-22T09:21:49.672Z,33.60
2017-10-22T09:24:17.737Z,27.13
2017-10-22T09:26:48.035Z,30.33
2017-10-22T09:29:16.694Z,31.70
2017-10-22T09:31:45.338Z,32.17
2017-10-22T09:34:14.175Z,35.73
2017-10-22T09:36:42.698Z,36.73
2017-10-22T09:39:12.980Z,33.17
2017-10-22T09:41:41.518Z,34.13
2017-10-22T09:44:15.384Z,29.10
2017-10-22T09:46:44.428Z,32.80
2017-10-22T09:49:13.156Z,30.30
2017-10-22T09:51:43.010Z,32.13
2017-10-22T09:54:11.120Z,32.30
2017-10-22T09:56:39.726Z,33.33
2017-10-22T09:59:08.632Z,33.10
2017-10-22T10:01:37.098Z,29.87
2017-10-22T10:04:05.787Z,29.53
2017-10-22T10:06:34.742Z,33.67
2017-10-22T10:09:04.390Z,31.90
2017-10-22T10:11:34.263Z,37.73
2017-10-22T10:14:03.359Z,36.27
2017-10-22T10:16:32.602Z,32.10
2017-10-22T10:19:00.705Z,40.50
2017-10-22T10:21:28.998Z,32.23
2017-10-22T10:23:57.851Z,36.83
2017-10-22T10:26:26.714Z,39.50
2017-10-22T10:28:55.571Z,33.07
2017-10-22T10:31:24.990Z,33.83
2017-10-22T10:33:54.269Z,34.13
2017-10-22T10:36:22.863Z,37.10
2017-10-22T10:38:51.742Z,28.57
2017-10-22T10:41:19.832Z,41.03
2017-10-22T10:43:48.763Z,45.43
2017-10-22T10:46:17.434Z,42.97
2017-10-22T10:48:46.723Z,39.73
2017-10-22T10:51:16.038Z,34.70
2017-10-22T10:53:45.270Z,36.47
2017-10-22T10:56:13.460Z,33.67
2017-10-22T10:58:42.503Z,35.87
2017-10-22T11:01:11.303Z,31.67
2017-10-22T11:03:40.000Z,37.50
2017-10-22T11:06:08.695Z,33.87
2017-10-22T11:08:36.891Z,46.77
2017-10-22T11:11:05.246Z,39.30
2017-10-22T11:13:33.638Z,34.17
2017-10-22T11:16:01.696Z,30.13
2017-10-22T11:18:30.265Z,27.07
2017-10-22T11:20:58.932Z,30.40
2017-10-22T11:23:27.711Z,28.83
2017-10-22T11:25:56.460Z,29.47
2017-10-22T11:28:25.076Z,37.93
2017-10-22T11:30:53.659Z,37.47
2017-10-22T11:33:22.289Z,28.20
2017-10-22T11:35:50.491Z,30.07
2017-10-22T11:38:18.546Z,29.07
2017-10-22T11:40:46.541Z,39.30
2017-10-22T11:43:14.681Z,26.93
2017-10-22T11:45:43.122Z,26.80
2017-10-22T11:48:11.862Z,39.30
2017-10-22T11:50:40.470Z,37.03
2017-10-22T11:53:08.480Z,36.03
2017-10-22T11:55:37.275Z,26.40
2017-10-22T11:58:06.199Z,27.83
2017-10-22T12:00:34.910Z,25.30
2017-10-22T12:03:02.883Z,36.00
2017-10-22T12:05:31.012Z,28.70
2017-10-22T12:07:59.781Z,33.83
2017-10-22T12:10:28.012Z,33.70
2017-10-22T12:12:56.193Z,29.33
2017-10-22T12:15:24.310Z,45.23
2017-10-22T12:17:53.108Z,31.77
2017-10-22T12:20:22.049Z,40.87
2017-10-22T12:22:50.134Z,34.37
2017-10-22T12:25:18.190Z,35.63
2017-10-22T12:27:46.422Z,33.20
2017-10-22T12:30:15.227Z,34.67
2017-10-22T12:32:44.035Z,33.87
2017-10-22T12:35:12.198Z,29.50
2017-10-22T12:37:40.220Z,29.43
2017-10-22T12:40:08.295Z,31.80
2017-10-22T12:42:36.427Z,36.77
2017-10-22T12:45:04.446Z,34.63
2017-10-22T12:47:32.588Z,32.57
2017-10-22T12:50:00.881Z,28.90
2017-10-22T12:52:28.844Z,34.77
2017-10-22T12:54:56.884Z,35.93
2017-10-22T12:57:25.066Z,31.67
2017-10-22T12:59:53.118Z,43.73
2017-10-22T13:02:21.921Z,38.13
2017-10-22T13:04:50.076Z,37.93
2017-10-22T13:07:18.824Z,34.70
2017-10-22T13:09:46.919Z,43.30
2017-10-22T13:12:15.196Z,41.83
2017-10-22T13:14:43.236Z,35.40
2017-10-22T13:17:11.623Z,34.60
2017-10-22T13:19:40.235Z,36.53
2017-10-22T13:22:08.967Z,42.07
2017-10-22T13:24:36.979Z,37.83
2017-10-22T13:27:05.150Z,36.10
2017-10-22T13:29:33.224Z,32.73
2017-10-22T13:32:01.254Z,36.63
2017-10-22T13:34:30.082Z,38.33
2017-10-22T13:36:58.115Z,38.83
2017-10-22T13:39:26.196Z,35.37
2017-10-22T13:41:54.436Z,40.33
2017-10-22T13:44:23.211Z,39.57
2017-10-22T13:46:51.796Z,39.53
2017-10-22T13:49:20.058Z,36.27
2017-10-22T13:51:48.592Z,33.20
2017-10-22T13:54:17.801Z,36.33
2017-10-22T13:56:46.011Z,37.47
2017-10-22T13:59:14.041Z,36.27
2017-10-22T14:01:42.094Z,31.63
2017-10-22T14:04:11.510Z,32.77
2017-10-22T14:06:40.887Z,38.20
2017-10-22T14:09:09.525Z,41.47
2017-10-22T14:11:37.710Z,39.10
2017-10-22T14:14:05.871Z,38.17
2017-10-22T14:16:33.926Z,35.23
2017-10-22T14:19:03.476Z,36.10
2017-10-22T14:21:32.035Z,50.93
2017-10-22T14:24:00.639Z,35.70
2017-10-22T14:26:29.258Z,30.87
2017-10-22T14:28:57.311Z,34.47
2017-10-22T14:31:25.319Z,38.23
2017-10-22T14:33:54.741Z,37.20
2017-10-22T14:36:24.086Z,35.40
2017-10-22T14:38:52.166Z,31.80
2017-10-22T14:41:20.281Z,32.57
2017-10-22T14:43:49.056Z,35.73
2017-10-22T14:46:17.092Z,40.30
2017-10-22T14:48:45.839Z,36.20
2017-10-22T14:51:15.047Z,39.70
2017-10-22T14:53:43.542Z,34.13
2017-10-22T14:56:12.426Z,40.77
2017-10-22T14:58:40.420Z,34.47
2017-10-22T15:01:08.462Z,38.10
2017-10-22T15:03:37.067Z,36.27
2017-10-22T15:06:05.410Z,40.53
2017-10-22T15:08:34.619Z,35.20
2017-10-22T15:11:04.200Z,32.17
2017-10-22T15:13:32.426Z,32.40
2017-10-22T15:16:00.701Z,35.00
2017-10-22T15:18:29.475Z,36.53
2017-10-22T15:20:58.301Z,31.27
2017-10-22T15:23:26.936Z,37.80
2017-10-22T15:25:56.320Z,33.97
2017-10-22T15:28:25.011Z,38.60
2017-10-22T15:30:53.076Z,39.03
2017-10-22T15:33:21.246Z,33.77
2017-10-22T15:35:49.285Z,35.93
2017-10-22T15:38:17.937Z,30.23
2017-10-22T15:40:47.350Z,29.73
2017-10-22T15:43:16.551Z,26.70
2017-10-22T15:45:45.355Z,36.17
2017-10-22T15:48:13.536Z,31.40
2017-10-22T15:50:42.107Z,28.30
2017-10-22T15:53:10.787Z,35.67
2017-10-22T15:55:40.329Z,30.03
2017-10-22T15:58:08.420Z,32.63
2017-10-22T16:00:36.521Z,36.33
2017-10-22T16:03:04.692Z,29.87
2017-10-22T16:05:33.151Z,34.53
2017-10-22T16:08:01.723Z,33.67
2017-10-22T16:10:30.361Z,34.40
2017-10-22T16:12:59.667Z,33.13
2017-10-22T16:15:28.381Z,28.60
2017-10-22T16:17:56.592Z,30.93
2017-10-22T16:20:25.218Z,29.70
2017-10-22T16:22:54.536Z,30.13
2017-10-22T16:25:23.206Z,27.97
2017-10-22T16:27:52.551Z,31.10
2017-10-22T16:30:20.635Z,36.33
2017-10-22T16:32:48.829Z,39.60
2017-10-22T16:35:16.791Z,30.27
2017-10-22T16:37:44.855Z,37.53
2017-10-22T16:40:13.129Z,27.63
2017-10-22T16:42:41.147Z,35.00
2017-10-22T16:45:10.571Z,33.03
2017-10-22T16:47:38.663Z,40.87
2017-10-22T16:50:06.690Z,34.33
2017-10-22T16:52:36.012Z,35.60
2017-10-22T16:55:04.919Z,33.00
2017-10-22T16:57:33.522Z,27.67
2017-10-22T17:00:02.071Z,34.90
2017-10-22T17:02:30.807Z,34.20
2017-10-22T17:04:58.842Z,24.80
2017-10-22T17:07:27.477Z,27.00
2017-10-22T17:09:56.256Z,34.37
2017-10-22T17:12:25.024Z,30.17
2017-10-22T17:14:53.034Z,34.87
2017-10-22T17:17:21.152Z,29.30
2017-10-22T17:19:49.438Z,29.87
2017-10-22T17:22:18.156Z,37.83
2017-10-22T17:24:47.004Z,27.70
2017-10-22T17:27:15.416Z,34.87
2017-10-22T17:29:43.870Z,31.30
2017-10-22T17:32:12.070Z,31.40
2017-10-22T17:34:40.332Z,30.30
2017-10-22T17:37:09.680Z,27.50
2017-10-22T17:39:38.351Z,32.50
2017-10-22T17:42:07.110Z,33.43
2017-10-22T17:44:35.566Z,29.77
2017-10-22T17:47:04.431Z,31.13
2017-10-22T17:49:32.515Z,28.13
2017-10-22T17:52:01.807Z,35.30
2017-10-22T17:54:29.966Z,35.13
2017-10-22T17:56:58.483Z,30.40
2017-10-22T17:59:27.867Z,33.57
2017-10-22T18:01:56.046Z,35.50
2017-10-22T18:04:24.191Z,29.80
2017-10-22T18:06:52.229Z,28.53
2017-10-22T18:09:21.111Z,35.27
2017-10-22T18:11:50.372Z,32.60
2017-10-22T18:14:18.860Z,31.00
2017-10-22T18:16:47.605Z,36.10
2017-10-22T18:19:15.642Z,29.10
2017-10-22T18:21:44.631Z,33.63
2017-10-22T18:24:13.966Z,28.07
2017-10-22T18:26:42.501Z,32.10
2017-10-22T18:29:11.238Z,27.07
2017-10-22T18:31:40.235Z,36.40
2017-10-22T18:34:08.207Z,36.60
2017-10-22T18:36:36.335Z,38.77
2017-10-22T18:39:04.786Z,36.47
2017-10-22T18:41:32.826Z,36.90
2017-10-22T18:44:02.338Z,35.80
2017-10-22T18:46:31.331Z,38.90
2017-10-22T18:48:59.338Z,34.20
2017-10-22T18:51:27.374Z,29.10
2017-10-22T18:53:55.947Z,26.80
2017-10-22T18:56:25.478Z,33.50
2017-10-22T18:58:54.078Z,36.40
2017-10-22T19:01:23.662Z,31.23
2017-10-22T19:03:51.696Z,34.00
2017-10-22T19:06:19.757Z,25.30
2017-10-22T19:08:47.952Z,31.00
2017-10-22T19:11:17.210Z,34.70
2017-10-22T19:13:45.764Z,28.70
2017-10-22T19:16:13.906Z,38.67
2017-10-22T19:18:43.352Z,30.50
2017-10-22T19:21:11.422Z,33.00
2017-10-22T19:23:39.722Z,34.13
2017-10-22T19:26:07.723Z,33.33
2017-10-22T19:28:35.774Z,41.00
2017-10-22T19:31:03.923Z,29.23
2017-10-22T19:33:31.942Z,32.03
2017-10-22T19:36:00.092Z,30.73
2017-10-22T19:38:28.179Z,32.83
2017-10-22T19:40:56.742Z,36.57
2017-10-22T19:43:25.302Z,32.50
2017-10-22T19:45:53.379Z,31.90
2017-10-22T19:48:21.919Z,40.00
2017-10-22T19:50:49.928Z,34.70
2017-10-22T19:53:18.102Z,36.30
2017-10-22T19:55:46.067Z,34.13
2017-10-22T19:58:14.663Z,43.20
2017-10-22T20:00:43.622Z,33.60
2017-10-22T20:03:12.435Z,32.97
2017-10-22T20:05:41.235Z,32.20
2017-10-22T20:08:09.406Z,36.30
2017-10-22T20:10:37.364Z,33.07
2017-10-22T20:13:06.170Z,37.37
2017-10-22T20:15:34.843Z,35.53
2017-10-22T20:18:03.591Z,43.60
2017-10-22T20:20:31.611Z,38.73
2017-10-22T20:22:59.697Z,40.17
2017-10-22T20:25:27.893Z,37.07
2017-10-22T20:27:56.510Z,42.97
2017-10-22T20:30:25.376Z,49.60
2017-10-22T20:32:53.911Z,40.10
2017-10-22T20:35:22.702Z,36.70
2017-10-22T20:37:51.565Z,39.60
2017-10-22T20:40:19.742Z,41.60
2017-10-22T20:42:47.872Z,41.03
2017-10-22T20:45:16.583Z,39.47
2017-10-22T20:47:45.361Z,41.57
2017-10-22T20:50:13.944Z,46.33
2017-10-22T20:52:42.102Z,39.90
2017-10-22T20:55:10.104Z,42.30
2017-10-22T20:57:38.914Z,42.17
2017-10-22T21:00:07.753Z,40.23
2017-10-22T21:02:37.353Z,45.07
2017-10-22T21:05:05.327Z,54.03
2017-10-22T21:07:33.485Z,45.43
2017-10-22T21:10:02.406Z,45.93
2017-10-22T21:12:31.007Z,43.13
2017-10-22T21:14:59.796Z,52.50
2017-10-22T21:17:27.830Z,39.17
2017-10-22T21:19:56.268Z,46.83
2017-10-22T21:22:24.388Z,39.20
2017-10-22T21:24:52.419Z,37.50
2017-10-22T21:27:20.638Z,58.50
2017-10-22T21:29:48.733Z,46.03
2017-10-22T21:32:17.467Z,38.90
2017-10-22T21:34:46.267Z,40.07
2017-10-22T21:37:15.755Z,46.33
2017-10-22T21:39:43.826Z,64.53
2017-10-22T21:42:11.987Z,50.30
2017-10-22T21:44:41.656Z,44.20
2017-10-22T21:47:10.145Z,50.27
2017-10-22T21:49:38.991Z,53.03
2017-10-22T21:52:07.240Z,45.90
2017-10-22T21:54:35.396Z,46.17
2017-10-22T21:57:03.437Z,48.70
2017-10-22T21:59:32.583Z,49.63
2017-10-22T22:02:01.342Z,44.20
2017-10-22T22:04:29.969Z,52.90
2017-10-22T22:06:58.158Z,42.40
2017-10-22T22:09:26.174Z,50.50
2017-10-22T22:11:54.187Z,47.23
2017-10-22T22:14:22.403Z,48.83
2017-10-22T22:16:51.931Z,47.73
2017-10-22T22:19:20.639Z,43.63
2017-10-22T22:21:49.334Z,45.60
2017-10-22T22:24:17.410Z,54.60
2017-10-22T22:26:45.486Z,44.50
2017-10-22T22:29:13.736Z,52.80
2017-10-22T22:31:42.479Z,53.50
2017-10-22T22:34:11.998Z,49.70
2017-10-22T22:36:41.354Z,50.67
2017-10-22T22:39:09.975Z,42.43
2017-10-22T22:41:38.034Z,43.50
2017-10-22T22:44:06.160Z,50.17
2017-10-22T22:46:34.628Z,51.03
2017-10-22T22:49:03.200Z,46.87
2017-10-22T22:51:31.957Z,46.50
2017-10-22T22:53:59.956Z,54.57
2017-10-22T22:56:28.695Z,46.40
2017-10-22T22:58:56.851Z,52.53
2017-10-22T23:01:25.320Z,50.87
2017-10-22T23:03:54.662Z,53.43
2017-10-22T23:06:23.348Z,48.47
2017-10-22T23:08:51.967Z,52.87
2017-10-22T23:11:19.987Z,60.13
2017-10-22T23:13:48.195Z,49.60
2017-10-22T23:16:16.778Z,46.90
2017-10-22T23:18:45.435Z,51.83
2017-10-22T23:21:14.423Z,57.27
2017-10-22T23:23:43.150Z,54.10
2017-10-22T23:26:11.127Z,56.33
2017-10-22T23:28:39.252Z,57.73
2017-10-22T23:31:07.827Z,56.10
2017-10-22T23:33:37.067Z,49.73
2017-10-22T23:36:05.699Z,65.67
2017-10-22T23:38:34.403Z,56.07
2017-10-22T23:41:02.490Z,53.10
2017-10-22T23:43:30.646Z,60.63
2017-10-22T23:45:59.390Z,49.03
2017-10-22T23:48:27.819Z,56.17
2017-10-22T23:50:57.366Z,61.83
2017-10-22T23:53:25.975Z,47.87
2017-10-22T23:55:54.651Z,46.83
2017-10-22T23:58:22.838Z,48.47
